» Metar & Tafor

24 November 2019
METAR
Pukul : 10.00 UTC
Isi :

METAR WAGI 251000Z 17005KT 9999 SCT012 30/26 Q1008 NOSIG=


10 Juni 2019
TAFOR
Pukul : 06 - 18 UTC
Isi :

TAF WAGI 250500Z 2506/2518 00000KT 9000 BKN011 TEMPO 2507/2510 19005KT 3000 TSRA FEW011CB=


Hal: << First | < Prev | 1 | Next > | Last >>